sensor_id;sensor_type;location;lat;lon;timestamp;temperature;humidity
14347;DHT22;7257;52.158;9.968;2023-03-03T00:00:07;-0.20;99.90
14347;DHT22;7257;52.158;9.968;2023-03-03T00:00:29;-0.20;99.90
14347;DHT22;7257;52.158;9.968;2023-03-03T00:00:50;-0.10;99.90
14347;DHT22;7257;52.158;9.968;2023-03-03T00:01:11;-0.20;99.90
14347;DHT22;7257;52.158;9.968;2023-03-03T00:01:32;-0.20;99.90
14347;DHT22;7257;52.158;9.968;2023-03-03T00:01:54;-0.20;99.90
14347;DHT22;7257;52.158;9.968;2023-03-03T00:02:15;-0.20;99.90
14347;DHT22;7257;52.158;9.968;2023-03-03T00:02:36;-0.20;99.90
14347;DHT22;7257;52.158;9.968;2023-03-03T00:02:58;-0.30;99.90
14347;DHT22;7257;52.158;9.968;2023-03-03T00:03:22;-0.30;99.90
14347;DHT22;7257;52.158;9.968;2023-03-03T00:03:44;-0.30;99.90
14347;DHT22;7257;52.158;9.968;2023-03-03T00:04:05;-0.30;99.90
14347;DHT22;7257;52.158;9.968;2023-03-03T00:04:26;-0.30;99.90
14347;DHT22;7257;52.158;9.968;2023-03-03T00:04:47;-0.20;99.90
14347;DHT22;7257;52.158;9.968;2023-03-03T00:05:09;-0.20;99.90
14347;DHT22;7257;52.158;9.968;2023-03-03T00:05:35;-0.20;99.90
14347;DHT22;7257;52.158;9.968;2023-03-03T00:05:57;-0.20;99.90
14347;DHT22;7257;52.158;9.968;2023-03-03T00:06:18;-0.20;99.90
14347;DHT22;7257;52.158;9.968;2023-03-03T00:06:39;-0.20;99.90
14347;DHT22;7257;52.158;9.968;2023-03-03T00:07:01;-0.30;99.90
14347;DHT22;7257;52.158;9.968;2023-03-03T00:07:22;-0.30;99.90
14347;DHT22;7257;52.158;9.968;2023-03-03T00:07:43;-0.30;99.90
14347;DHT22;7257;52.158;9.968;2023-03-03T00:08:05;-0.30;99.90
14347;DHT22;7257;52.158;9.968;2023-03-03T00:08:26;-0.30;99.90
14347;DHT22;7257;52.158;9.968;2023-03-03T00:08:48;-0.30;99.90
14347;DHT22;7257;52.158;9.968;2023-03-03T00:09:09;-0.30;99.90
14347;DHT22;7257;52.158;9.968;2023-03-03T00:09:30;-0.30;99.90
14347;DHT22;7257;52.158;9.968;2023-03-03T00:09:51;-0.20;99.90
14347;DHT22;7257;52.158;9.968;2023-03-03T00:10:12;-0.20;99.90
14347;DHT22;7257;52.158;9.968;2023-03-03T00:10:34;-0.20;99.90
14347;DHT22;7257;52.158;9.968;2023-03-03T00:10:55;-0.20;99.90
14347;DHT22;7257;52.158;9.968;2023-03-03T00:11:16;-0.20;99.90
14347;DHT22;7257;52.158;9.968;2023-03-03T00:11:38;-0.20;99.90
14347;DHT22;7257;52.158;9.968;2023-03-03T00:12:00;-0.20;99.90
14347;DHT22;7257;52.158;9.968;2023-03-03T00:12:24;-0.20;99.90
14347;DHT22;7257;52.158;9.968;2023-03-03T00:12:47;-0.20;99.90
14347;DHT22;7257;52.158;9.968;2023-03-03T00:13:14;-0.20;99.90
14347;DHT22;7257;52.158;9.968;2023-03-03T00:13:44;-0.20;99.90
14347;DHT22;7257;52.158;9.968;2023-03-03T00:14:17;-0.30;99.90
14347;DHT22;7257;52.158;9.968;2023-03-03T00:14:40;-0.30;99.90
14347;DHT22;7257;52.158;9.968;2023-03-03T00:15:13;-0.40;99.90
14347;DHT22;7257;52.158;9.968;2023-03-03T00:15:35;-0.40;99.90
14347;DHT22;7257;52.158;9.968;2023-03-03T00:16:10;-0.40;99.90
14347;DHT22;7257;52.158;9.968;2023-03-03T00:16:37;-0.40;99.90
14347;DHT22;7257;52.158;9.968;2023-03-03T00:17:00;-0.30;99.90
14347;DHT22;7257;52.158;9.968;2023-03-03T00:17:28;-0.30;99.90
14347;DHT22;7257;52.158;9.968;2023-03-03T00:17:50;-0.30;99.90
14347;DHT22;7257;52.158;9.968;2023-03-03T00:18:20;-0.20;99.90
14347;DHT22;7257;52.158;9.968;2023-03-03T00:18:44;-0.20;99.90
14347;DHT22;7257;52.158;9.968;2023-03-03T00:19:12;-0.20;99.90
14347;DHT22;7257;52.158;9.968;2023-03-03T00:19:37;-0.30;99.90
14347;DHT22;7257;52.158;9.968;2023-03-03T00:20:01;-0.30;99.90
14347;DHT22;7257;52.158;9.968;2023-03-03T00:20:48;-0.30;99.90
14347;DHT22;7257;52.158;9.968;2023-03-03T00:21:21;-0.20;99.90
14347;DHT22;7257;52.158;9.968;2023-03-03T00:21:45;-0.20;99.90
14347;DHT22;7257;52.158;9.968;2023-03-03T00:22:14;-0.20;99.90
14347;DHT22;7257;52.158;9.968;2023-03-03T00:22:36;-0.20;99.90
14347;DHT22;7257;52.158;9.968;2023-03-03T00:23:15;-0.20;99.90
14347;DHT22;7257;52.158;9.968;2023-03-03T00:23:38;-0.20;99.90
14347;DHT22;7257;52.158;9.968;2023-03-03T00:24:16;-0.30;99.90
14347;DHT22;7257;52.158;9.968;2023-03-03T00:24:37;-0.30;99.90
14347;DHT22;7257;52.158;9.968;2023-03-03T00:24:59;-0.40;99.90
14347;DHT22;7257;52.158;9.968;2023-03-03T00:25:27;-0.40;99.90
14347;DHT22;7257;52.158;9.968;2023-03-03T00:25:49;-0.40;99.90
14347;DHT22;7257;52.158;9.968;2023-03-03T00:26:15;-0.40;99.90
14347;DHT22;7257;52.158;9.968;2023-03-03T00:26:39;-0.30;99.90
14347;DHT22;7257;52.158;9.968;2023-03-03T00:27:08;-0.30;99.90
14347;DHT22;7257;52.158;9.968;2023-03-03T00:27:34;-0.30;99.90
14347;DHT22;7257;52.158;9.968;2023-03-03T00:27:55;-0.40;99.90
14347;DHT22;7257;52.158;9.968;2023-03-03T00:28:23;-0.40;99.90
14347;DHT22;7257;52.158;9.968;2023-03-03T00:28:47;-0.40;99.90
14347;DHT22;7257;52.158;9.968;2023-03-03T00:29:27;-0.40;99.90
14347;DHT22;7257;52.158;9.968;2023-03-03T00:29:49;-0.50;99.90
14347;DHT22;7257;52.158;9.968;2023-03-03T00:30:19;-0.50;99.90
14347;DHT22;7257;52.158;9.968;2023-03-03T00:30:42;-0.50;99.90
14347;DHT22;7257;52.158;9.968;2023-03-03T00:31:14;-0.50;99.90
14347;DHT22;7257;52.158;9.968;2023-03-03T00:31:36;-0.50;99.90
14347;DHT22;7257;52.158;9.968;2023-03-03T00:32:20;-0.50;99.90
14347;DHT22;7257;52.158;9.968;2023-03-03T00:32:43;-0.50;99.90
14347;DHT22;7257;52.158;9.968;2023-03-03T00:33:18;-0.40;99.90
14347;DHT22;7257;52.158;9.968;2023-03-03T00:33:44;-0.40;99.90
14347;DHT22;7257;52.158;9.968;2023-03-03T00:34:19;-0.40;99.90
14347;DHT22;7257;52.158;9.968;2023-03-03T00:34:44;-0.40;99.90
14347;DHT22;7257;52.158;9.968;2023-03-03T00:35:22;-0.30;99.90
14347;DHT22;7257;52.158;9.968;2023-03-03T00:35:43;-0.20;99.90
14347;DHT22;7257;52.158;9.968;2023-03-03T00:36:26;-0.20;99.90
14347;DHT22;7257;52.158;9.968;2023-03-03T00:36:52;-0.10;99.90
14347;DHT22;7257;52.158;9.968;2023-03-03T00:37:27;-0.10;99.90
14347;DHT22;7257;52.158;9.968;2023-03-03T00:37:53;-0.10;99.90
14347;DHT22;7257;52.158;9.968;2023-03-03T00:38:17;-0.10;99.90
14347;DHT22;7257;52.158;9.968;2023-03-03T00:38:38;-0.20;99.90
14347;DHT22;7257;52.158;9.968;2023-03-03T00:39:14;-0.20;99.90
14347;DHT22;7257;52.158;9.968;2023-03-03T00:39:37;-0.20;99.90
14347;DHT22;7257;52.158;9.968;2023-03-03T00:40:20;-0.20;99.90
14347;DHT22;7257;52.158;9.968;2023-03-03T00:40:44;-0.20;99.90
14347;DHT22;7257;52.158;9.968;2023-03-03T00:41:14;-0.20;99.90
14347;DHT22;7257;52.158;9.968;2023-03-03T00:41:38;-0.20;99.90
14347;DHT22;7257;52.158;9.968;2023-03-03T00:41:59;-0.20;99.90
14347;DHT22;7257;52.158;9.968;2023-03-03T00:42:21;-0.30;99.90
14347;DHT22;7257;52.158;9.968;2023-03-03T00:42:46;-0.40;99.90
14347;DHT22;7257;52.158;9.968;2023-03-03T00:43:17;-0.50;99.90
14347;DHT22;7257;52.158;9.968;2023-03-03T00:43:39;-0.50;99.90
14347;DHT22;7257;52.158;9.968;2023-03-03T00:44:02;-0.50;99.90
14347;DHT22;7257;52.158;9.968;2023-03-03T00:44:41;-0.60;99.90
14347;DHT22;7257;52.158;9.968;2023-03-03T00:45:19;-0.60;99.90
14347;DHT22;7257;52.158;9.968;2023-03-03T00:45:45;-0.70;99.90
14347;DHT22;7257;52.158;9.968;2023-03-03T00:46:07;-0.70;99.90
14347;DHT22;7257;52.158;9.968;2023-03-03T00:46:30;-0.70;99.90
14347;DHT22;7257;52.158;9.968;2023-03-03T00:46:51;-0.70;99.90
14347;DHT22;7257;52.158;9.968;2023-03-03T00:47:24;-0.70;99.90
14347;DHT22;7257;52.158;9.968;2023-03-03T00:47:46;-0.70;99.90
14347;DHT22;7257;52.158;9.968;2023-03-03T00:48:20;-0.70;99.90
14347;DHT22;7257;52.158;9.968;2023-03-03T00:48:42;-0.80;99.90
14347;DHT22;7257;52.158;9.968;2023-03-03T00:49:18;-0.70;99.90
14347;DHT22;7257;52.158;9.968;2023-03-03T00:49:42;-0.80;99.90
14347;DHT22;7257;52.158;9.968;2023-03-03T00:50:27;-0.70;99.90
14347;DHT22;7257;52.158;9.968;2023-03-03T00:50:50;-0.70;99.90
14347;DHT22;7257;52.158;9.968;2023-03-03T00:51:24;-0.60;99.90
14347;DHT22;7257;52.158;9.968;2023-03-03T00:51:46;-0.60;99.90
14347;DHT22;7257;52.158;9.968;2023-03-03T00:52:11;-0.50;99.90
14347;DHT22;7257;52.158;9.968;2023-03-03T00:52:36;-0.60;99.90
14347;DHT22;7257;52.158;9.968;2023-03-03T00:53:09;-0.70;99.90
14347;DHT22;7257;52.158;9.968;2023-03-03T00:53:32;-0.80;99.90
14347;DHT22;7257;52.158;9.968;2023-03-03T00:53:54;-0.80;99.90
14347;DHT22;7257;52.158;9.968;2023-03-03T00:54:15;-0.90;99.90
14347;DHT22;7257;52.158;9.968;2023-03-03T00:54:36;-0.90;99.90
14347;DHT22;7257;52.158;9.968;2023-03-03T00:54:57;-0.90;99.90
14347;DHT22;7257;52.158;9.968;2023-03-03T00:55:18;-0.90;99.90
14347;DHT22;7257;52.158;9.968;2023-03-03T00:55:39;-0.90;99.90
14347;DHT22;7257;52.158;9.968;2023-03-03T00:56:01;-0.90;99.90
14347;DHT22;7257;52.158;9.968;2023-03-03T00:56:22;-0.90;99.90
14347;DHT22;7257;52.158;9.968;2023-03-03T00:56:43;-0.90;99.90
14347;DHT22;7257;52.158;9.968;2023-03-03T00:57:04;-0.90;99.90
14347;DHT22;7257;52.158;9.968;2023-03-03T00:57:24;-0.90;99.90
14347;DHT22;7257;52.158;9.968;2023-03-03T00:57:46;-0.90;99.90
14347;DHT22;7257;52.158;9.968;2023-03-03T00:58:07;-0.90;99.90
14347;DHT22;7257;52.158;9.968;2023-03-03T00:58:28;-0.90;99.90
14347;DHT22;7257;52.158;9.968;2023-03-03T00:58:50;-0.80;99.90
14347;DHT22;7257;52.158;9.968;2023-03-03T00:59:12;-0.80;99.90
14347;DHT22;7257;52.158;9.968;2023-03-03T00:59:33;-0.90;99.90
14347;DHT22;7257;52.158;9.968;2023-03-03T00:59:54;-0.80;99.90
14347;DHT22;7257;52.158;9.968;2023-03-03T01:00:15;-0.80;99.90
14347;DHT22;7257;52.158;9.968;2023-03-03T01:00:36;-0.80;99.90
14347;DHT22;7257;52.158;9.968;2023-03-03T01:00:58;-0.80;99.90
14347;DHT22;7257;52.158;9.968;2023-03-03T01:01:19;-0.80;99.90
14347;DHT22;7257;52.158;9.968;2023-03-03T01:01:40;-0.80;99.90
14347;DHT22;7257;52.158;9.968;2023-03-03T01:02:01;-0.80;99.90
14347;DHT22;7257;52.158;9.968;2023-03-03T01:02:22;-0.80;99.90
14347;DHT22;7257;52.158;9.968;2023-03-03T01:02:43;-0.80;99.90
14347;DHT22;7257;52.158;9.968;2023-03-03T01:03:07;-0.80;99.90
14347;DHT22;7257;52.158;9.968;2023-03-03T01:03:28;-0.80;99.90
14347;DHT22;7257;52.158;9.968;2023-03-03T01:03:50;-0.80;99.90
14347;DHT22;7257;52.158;9.968;2023-03-03T01:04:10;-0.80;99.90
14347;DHT22;7257;52.158;9.968;2023-03-03T01:04:31;-0.80;99.90
14347;DHT22;7257;52.158;9.968;2023-03-03T01:04:52;-0.80;99.90
14347;DHT22;7257;52.158;9.968;2023-03-03T01:05:17;-0.80;99.90
14347;DHT22;7257;52.158;9.968;2023-03-03T01:05:38;-0.70;99.90
14347;DHT22;7257;52.158;9.968;2023-03-03T01:06:00;-0.70;99.90
14347;DHT22;7257;52.158;9.968;2023-03-03T01:06:21;-0.80;99.90
14347;DHT22;7257;52.158;9.968;2023-03-03T01:06:41;-0.80;99.90
14347;DHT22;7257;52.158;9.968;2023-03-03T01:07:02;-0.80;99.90
14347;DHT22;7257;52.158;9.968;2023-03-03T01:07:23;-0.90;99.90
14347;DHT22;7257;52.158;9.968;2023-03-03T01:07:45;-0.90;99.90
14347;DHT22;7257;52.158;9.968;2023-03-03T01:08:06;-0.90;99.90
14347;DHT22;7257;52.158;9.968;2023-03-03T01:08:27;-0.80;99.90
14347;DHT22;7257;52.158;9.968;2023-03-03T01:08:50;-0.80;99.90
14347;DHT22;7257;52.158;9.968;2023-03-03T01:09:11;-0.80;99.90
14347;DHT22;7257;52.158;9.968;2023-03-03T01:09:32;-0.90;99.90
14347;DHT22;7257;52.158;9.968;2023-03-03T01:09:53;-0.90;99.90
14347;DHT22;7257;52.158;9.968;2023-03-03T01:10:14;-0.90;99.90
14347;DHT22;7257;52.158;9.968;2023-03-03T01:10:39;-0.90;99.90
14347;DHT22;7257;52.158;9.968;2023-03-03T01:11:04;-0.80;99.90
14347;DHT22;7257;52.158;9.968;2023-03-03T01:11:26;-0.80;99.90
14347;DHT22;7257;52.158;9.968;2023-03-03T01:11:49;-0.80;99.90
14347;DHT22;7257;52.158;9.968;2023-03-03T01:12:10;-0.80;99.90
14347;DHT22;7257;52.158;9.968;2023-03-03T01:12:31;-0.80;99.90
14347;DHT22;7257;52.158;9.968;2023-03-03T01:12:52;-0.80;99.90
14347;DHT22;7257;52.158;9.968;2023-03-03T01:13:14;-0.80;99.90
14347;DHT22;7257;52.158;9.968;2023-03-03T01:13:37;-0.80;99.90
14347;DHT22;7257;52.158;9.968;2023-03-03T01:13:59;-0.70;99.90
14347;DHT22;7257;52.158;9.968;2023-03-03T01:14:20;-0.70;99.90
14347;DHT22;7257;52.158;9.968;2023-03-03T01:14:41;-0.70;99.90
14347;DHT22;7257;52.158;9.968;2023-03-03T01:15:06;-0.70;99.90
14347;DHT22;7257;52.158;9.968;2023-03-03T01:15:27;-0.70;99.90
14347;DHT22;7257;52.158;9.968;2023-03-03T01:15:49;-0.70;99.90
14347;DHT22;7257;52.158;9.968;2023-03-03T01:16:10;-0.70;99.90
14347;DHT22;7257;52.158;9.968;2023-03-03T01:16:33;-0.70;99.90
14347;DHT22;7257;52.158;9.968;2023-03-03T01:16:53;-0.70;99.90
14347;DHT22;7257;52.158;9.968;2023-03-03T01:17:14;-0.60;99.90
14347;DHT22;7257;52.158;9.968;2023-03-03T01:17:35;-0.70;99.90
14347;DHT22;7257;52.158;9.968;2023-03-03T01:17:56;-0.70;99.90
14347;DHT22;7257;52.158;9.968;2023-03-03T01:18:18;-0.70;99.90
14347;DHT22;7257;52.158;9.968;2023-03-03T01:18:39;-0.70;99.90
14347;DHT22;7257;52.158;9.968;2023-03-03T01:19:01;-0.60;99.90
14347;DHT22;7257;52.158;9.968;2023-03-03T01:19:22;-0.60;99.90
14347;DHT22;7257;52.158;9.968;2023-03-03T01:19:44;-0.60;99.90
14347;DHT22;7257;52.158;9.968;2023-03-03T01:20:07;-0.50;99.90
14347;DHT22;7257;52.158;9.968;2023-03-03T01:20:28;-0.50;99.90
14347;DHT22;7257;52.158;9.968;2023-03-03T01:20:49;-0.50;99.90
14347;DHT22;7257;52.158;9.968;2023-03-03T01:21:11;-0.50;99.90
14347;DHT22;7257;52.158;9.968;2023-03-03T01:21:32;-0.50;99.90
14347;DHT22;7257;52.158;9.968;2023-03-03T01:21:53;-0.50;99.90
14347;DHT22;7257;52.158;9.968;2023-03-03T01:22:14;-0.50;99.90
14347;DHT22;7257;52.158;9.968;2023-03-03T01:22:36;-0.50;99.90
14347;DHT22;7257;52.158;9.968;2023-03-03T01:22:57;-0.60;99.90
14347;DHT22;7257;52.158;9.968;2023-03-03T01:23:18;-0.60;99.90
14347;DHT22;7257;52.158;9.968;2023-03-03T01:23:39;-0.70;99.90
14347;DHT22;7257;52.158;9.968;2023-03-03T01:24:02;-0.70;99.90
14347;DHT22;7257;52.158;9.968;2023-03-03T01:24:23;-0.70;99.90
14347;DHT22;7257;52.158;9.968;2023-03-03T01:24:44;-0.70;99.90
14347;DHT22;7257;52.158;9.968;2023-03-03T01:25:05;-0.70;99.90
14347;DHT22;7257;52.158;9.968;2023-03-03T01:25:27;-0.80;99.90
14347;DHT22;7257;52.158;9.968;2023-03-03T01:25:49;-0.80;99.90
14347;DHT22;7257;52.158;9.968;2023-03-03T01:26:10;-0.80;99.90
14347;DHT22;7257;52.158;9.968;2023-03-03T01:26:30;-0.80;99.90
14347;DHT22;7257;52.158;9.968;2023-03-03T01:26:51;-0.80;99.90
14347;DHT22;7257;52.158;9.968;2023-03-03T01:27:13;-0.80;99.90
14347;DHT22;7257;52.158;9.968;2023-03-03T01:27:34;-0.80;99.90
14347;DHT22;7257;52.158;9.968;2023-03-03T01:27:55;-0.80;99.90
14347;DHT22;7257;52.158;9.968;2023-03-03T01:28:16;-0.70;99.90
14347;DHT22;7257;52.158;9.968;2023-03-03T01:28:38;-0.70;99.90
14347;DHT22;7257;52.158;9.968;2023-03-03T01:28:59;-0.70;99.90
14347;DHT22;7257;52.158;9.968;2023-03-03T01:29:19;-0.60;99.90
14347;DHT22;7257;52.158;9.968;2023-03-03T01:29:40;-0.60;99.90
14347;DHT22;7257;52.158;9.968;2023-03-03T01:30:02;-0.60;99.90
14347;DHT22;7257;52.158;9.968;2023-03-03T01:30:25;-0.50;99.90
14347;DHT22;7257;52.158;9.968;2023-03-03T01:30:46;-0.40;99.90
14347;DHT22;7257;52.158;9.968;2023-03-03T01:31:07;-0.40;99.90
14347;DHT22;7257;52.158;9.968;2023-03-03T01:31:28;-0.40;99.90
14347;DHT22;7257;52.158;9.968;2023-03-03T01:31:50;-0.30;99.90
14347;DHT22;7257;52.158;9.968;2023-03-03T01:32:10;-0.30;99.90
14347;DHT22;7257;52.158;9.968;2023-03-03T01:32:31;-0.20;99.90
14347;DHT22;7257;52.158;9.968;2023-03-03T01:32:52;-0.20;99.90
14347;DHT22;7257;52.158;9.968;2023-03-03T01:33:14;-0.20;99.90
14347;DHT22;7257;52.158;9.968;2023-03-03T01:33:35;-0.20;99.90
14347;DHT22;7257;52.158;9.968;2023-03-03T01:33:56;-0.10;99.90
14347;DHT22;7257;52.158;9.968;2023-03-03T01:34:17;-0.10;99.90
14347;DHT22;7257;52.158;9.968;2023-03-03T01:34:38;-0.10;99.90
14347;DHT22;7257;52.158;9.968;2023-03-03T01:34:59;-0.10;99.90
14347;DHT22;7257;52.158;9.968;2023-03-03T01:35:21;-0.20;99.90
14347;DHT22;7257;52.158;9.968;2023-03-03T01:35:43;-0.30;99.90
14347;DHT22;7257;52.158;9.968;2023-03-03T01:36:05;-0.40;99.90
14347;DHT22;7257;52.158;9.968;2023-03-03T01:36:27;-0.40;99.90
14347;DHT22;7257;52.158;9.968;2023-03-03T01:36:49;-0.40;99.90
14347;DHT22;7257;52.158;9.968;2023-03-03T01:37:09;-0.40;99.90
14347;DHT22;7257;52.158;9.968;2023-03-03T01:37:30;-0.40;99.90
14347;DHT22;7257;52.158;9.968;2023-03-03T01:37:51;-0.40;99.90
14347;DHT22;7257;52.158;9.968;2023-03-03T01:38:13;-0.30;99.90
14347;DHT22;7257;52.158;9.968;2023-03-03T01:38:34;-0.30;99.90
14347;DHT22;7257;52.158;9.968;2023-03-03T01:38:55;-0.30;99.90
14347;DHT22;7257;52.158;9.968;2023-03-03T01:39:17;-0.30;99.90
14347;DHT22;7257;52.158;9.968;2023-03-03T01:39:38;-0.20;99.90
14347;DHT22;7257;52.158;9.968;2023-03-03T01:40:00;-0.20;99.90
14347;DHT22;7257;52.158;9.968;2023-03-03T01:40:23;-0.20;99.90
14347;DHT22;7257;52.158;9.968;2023-03-03T01:40:51;-0.20;99.90
14347;DHT22;7257;52.158;9.968;2023-03-03T01:41:13;-0.30;99.90
14347;DHT22;7257;52.158;9.968;2023-03-03T01:41:34;-0.40;99.90
14347;DHT22;7257;52.158;9.968;2023-03-03T01:41:55;-0.40;99.90
14347;DHT22;7257;52.158;9.968;2023-03-03T01:42:16;-0.40;99.90
14347;DHT22;7257;52.158;9.968;2023-03-03T01:42:37;-0.40;99.90
14347;DHT22;7257;52.158;9.968;2023-03-03T01:42:59;-0.40;99.90
14347;DHT22;7257;52.158;9.968;2023-03-03T01:43:20;-0.50;99.90
14347;DHT22;7257;52.158;9.968;2023-03-03T01:43:43;-0.50;99.90
14347;DHT22;7257;52.158;9.968;2023-03-03T01:44:05;-0.50;99.90
14347;DHT22;7257;52.158;9.968;2023-03-03T01:44:27;-0.50;99.90
14347;DHT22;7257;52.158;9.968;2023-03-03T01:44:48;-0.60;99.90
14347;DHT22;7257;52.158;9.968;2023-03-03T01:45:16;-0.60;99.90
14347;DHT22;7257;52.158;9.968;2023-03-03T01:45:52;-0.60;99.90
14347;DHT22;7257;52.158;9.968;2023-03-03T01:46:45;-0.70;99.90
14347;DHT22;7257;52.158;9.968;2023-03-03T01:47:10;-0.70;99.90
14347;DHT22;7257;52.158;9.968;2023-03-03T01:47:33;-0.70;99.90
14347;DHT22;7257;52.158;9.968;2023-03-03T01:47:59;-0.60;99.90
14347;DHT22;7257;52.158;9.968;2023-03-03T01:48:23;-0.70;99.90
14347;DHT22;7257;52.158;9.968;2023-03-03T01:48:45;-0.70;99.90
14347;DHT22;7257;52.158;9.968;2023-03-03T01:49:10;-0.80;99.90
14347;DHT22;7257;52.158;9.968;2023-03-03T01:49:34;-0.80;99.90
14347;DHT22;7257;52.158;9.968;2023-03-03T01:49:59;-0.80;99.90
14347;DHT22;7257;52.158;9.968;2023-03-03T01:50:37;-0.80;99.90
14347;DHT22;7257;52.158;9.968;2023-03-03T01:51:01;-0.70;99.90
14347;DHT22;7257;52.158;9.968;2023-03-03T01:51:26;-0.70;99.90
14347;DHT22;7257;52.158;9.968;2023-03-03T01:51:51;-0.80;99.90
14347;DHT22;7257;52.158;9.968;2023-03-03T01:52:20;-0.60;99.90
14347;DHT22;7257;52.158;9.968;2023-03-03T01:52:44;-0.50;99.90
14347;DHT22;7257;52.158;9.968;2023-03-03T01:53:11;-0.50;99.90
14347;DHT22;7257;52.158;9.968;2023-03-03T01:53:38;-0.40;99.90
14347;DHT22;7257;52.158;9.968;2023-03-03T01:54:02;-0.40;99.90
14347;DHT22;7257;52.158;9.968;2023-03-03T01:54:27;-0.40;99.90
14347;DHT22;7257;52.158;9.968;2023-03-03T01:54:51;-0.30;99.90
14347;DHT22;7257;52.158;9.968;2023-03-03T01:55:17;-0.20;99.90
14347;DHT22;7257;52.158;9.968;2023-03-03T01:55:41;-0.20;99.90
14347;DHT22;7257;52.158;9.968;2023-03-03T01:56:04;-0.20;99.90
14347;DHT22;7257;52.158;9.968;2023-03-03T01:56:27;-0.20;99.90
14347;DHT22;7257;52.158;9.968;2023-03-03T01:56:49;-0.30;99.90
14347;DHT22;7257;52.158;9.968;2023-03-03T01:57:16;-0.30;99.90
14347;DHT22;7257;52.158;9.968;2023-03-03T01:57:43;-0.30;99.90
14347;DHT22;7257;52.158;9.968;2023-03-03T01:58:07;-0.30;99.90
14347;DHT22;7257;52.158;9.968;2023-03-03T01:58:33;-0.40;99.90
14347;DHT22;7257;52.158;9.968;2023-03-03T01:59:00;-0.40;99.90
14347;DHT22;7257;52.158;9.968;2023-03-03T01:59:25;-0.40;99.90
14347;DHT22;7257;52.158;9.968;2023-03-03T01:59:48;-0.40;99.90
14347;DHT22;7257;52.158;9.968;2023-03-03T02:00:12;-0.40;99.90
14347;DHT22;7257;52.158;9.968;2023-03-03T02:00:34;-0.40;99.90
14347;DHT22;7257;52.158;9.968;2023-03-03T02:00:59;-0.40;99.90
14347;DHT22;7257;52.158;9.968;2023-03-03T02:01:24;-0.40;99.90
14347;DHT22;7257;52.158;9.968;2023-03-03T02:01:48;-0.40;99.90
14347;DHT22;7257;52.158;9.968;2023-03-03T02:02:10;-0.40;99.90
14347;DHT22;7257;52.158;9.968;2023-03-03T02:02:31;-0.40;99.90
14347;DHT22;7257;52.158;9.968;2023-03-03T02:02:53;-0.40;99.90
14347;DHT22;7257;52.158;9.968;2023-03-03T02:03:14;-0.40;99.90
14347;DHT22;7257;52.158;9.968;2023-03-03T02:03:36;-0.40;99.90
14347;DHT22;7257;52.158;9.968;2023-03-03T02:03:57;-0.40;99.90
14347;DHT22;7257;52.158;9.968;2023-03-03T02:04:18;-0.40;99.90
14347;DHT22;7257;52.158;9.968;2023-03-03T02:04:41;-0.40;99.90
14347;DHT22;7257;52.158;9.968;2023-03-03T02:05:03;-0.40;99.90
14347;DHT22;7257;52.158;9.968;2023-03-03T02:05:25;-0.40;99.90
14347;DHT22;7257;52.158;9.968;2023-03-03T02:05:46;-0.40;99.90
14347;DHT22;7257;52.158;9.968;2023-03-03T02:06:09;-0.40;99.90
14347;DHT22;7257;52.158;9.968;2023-03-03T02:06:35;-0.40;99.90
14347;DHT22;7257;52.158;9.968;2023-03-03T02:07:00;-0.40;99.90
14347;DHT22;7257;52.158;9.968;2023-03-03T02:07:22;-0.40;99.90
14347;DHT22;7257;52.158;9.968;2023-03-03T02:07:45;-0.40;99.90
14347;DHT22;7257;52.158;9.968;2023-03-03T02:08:08;-0.40;99.90
14347;DHT22;7257;52.158;9.968;2023-03-03T02:08:36;-0.40;99.90
14347;DHT22;7257;52.158;9.968;2023-03-03T02:09:01;-0.50;99.90
14347;DHT22;7257;52.158;9.968;2023-03-03T02:09:28;-0.50;99.90
14347;DHT22;7257;52.158;9.968;2023-03-03T02:09:56;-0.50;99.90
14347;DHT22;7257;52.158;9.968;2023-03-03T02:10:20;-0.50;99.90
14347;DHT22;7257;52.158;9.968;2023-03-03T02:10:42;-0.50;99.90
14347;DHT22;7257;52.158;9.968;2023-03-03T02:11:04;-0.50;99.90
14347;DHT22;7257;52.158;9.968;2023-03-03T02:11:29;-0.50;99.90
14347;DHT22;7257;52.158;9.968;2023-03-03T02:11:54;-0.50;99.90
14347;DHT22;7257;52.158;9.968;2023-03-03T02:12:17;-0.40;99.90
14347;DHT22;7257;52.158;9.968;2023-03-03T02:12:41;-0.40;99.90
14347;DHT22;7257;52.158;9.968;2023-03-03T02:13:03;-0.40;99.90
14347;DHT22;7257;52.158;9.968;2023-03-03T02:13:24;-0.50;99.90
14347;DHT22;7257;52.158;9.968;2023-03-03T02:13:45;-0.50;99.90
14347;DHT22;7257;52.158;9.968;2023-03-03T02:14:06;-0.50;99.90
14347;DHT22;7257;52.158;9.968;2023-03-03T02:14:27;-0.50;99.90
14347;DHT22;7257;52.158;9.968;2023-03-03T02:14:48;-0.50;99.90
14347;DHT22;7257;52.158;9.968;2023-03-03T02:15:20;-0.50;99.90
14347;DHT22;7257;52.158;9.968;2023-03-03T02:15:42;-0.50;99.90
14347;DHT22;7257;52.158;9.968;2023-03-03T02:16:04;-0.60;99.90
14347;DHT22;7257;52.158;9.968;2023-03-03T02:16:25;-0.50;99.90
14347;DHT22;7257;52.158;9.968;2023-03-03T02:16:47;-0.50;99.90
14347;DHT22;7257;52.158;9.968;2023-03-03T02:17:08;-0.50;99.90
14347;DHT22;7257;52.158;9.968;2023-03-03T02:17:31;-0.50;99.90
14347;DHT22;7257;52.158;9.968;2023-03-03T02:17:53;-0.50;99.90
14347;DHT22;7257;52.158;9.968;2023-03-03T02:18:18;-0.40;99.90
14347;DHT22;7257;52.158;9.968;2023-03-03T02:18:39;-0.40;99.90
14347;DHT22;7257;52.158;9.968;2023-03-03T02:19:01;-0.30;99.90
14347;DHT22;7257;52.158;9.968;2023-03-03T02:19:32;-0.30;99.90
14347;DHT22;7257;52.158;9.968;2023-03-03T02:20:02;-0.20;99.90
14347;DHT22;7257;52.158;9.968;2023-03-03T02:20:34;-0.20;99.90
14347;DHT22;7257;52.158;9.968;2023-03-03T02:21:04;-0.20;99.90
14347;DHT22;7257;52.158;9.968;2023-03-03T02:21:25;-0.20;99.90
14347;DHT22;7257;52.158;9.968;2023-03-03T02:21:47;-0.20;99.90
14347;DHT22;7257;52.158;9.968;2023-03-03T02:22:08;-0.20;99.90
14347;DHT22;7257;52.158;9.968;2023-03-03T02:22:37;-0.40;99.90
14347;DHT22;7257;52.158;9.968;2023-03-03T02:23:04;-0.50;99.90
14347;DHT22;7257;52.158;9.968;2023-03-03T02:23:31;-0.60;99.90
14347;DHT22;7257;52.158;9.968;2023-03-03T02:23:59;-0.60;99.90
14347;DHT22;7257;52.158;9.968;2023-03-03T02:24:26;-0.60;99.90
14347;DHT22;7257;52.158;9.968;2023-03-03T02:24:51;-0.60;99.90
14347;DHT22;7257;52.158;9.968;2023-03-03T02:25:23;-0.60;99.90
14347;DHT22;7257;52.158;9.968;2023-03-03T02:25:59;-0.60;99.90
14347;DHT22;7257;52.158;9.968;2023-03-03T02:26:24;-0.60;99.90
14347;DHT22;7257;52.158;9.968;2023-03-03T02:26:45;-0.60;99.90
14347;DHT22;7257;52.158;9.968;2023-03-03T02:27:08;-0.60;99.90
14347;DHT22;7257;52.158;9.968;2023-03-03T02:27:30;-0.60;99.90
14347;DHT22;7257;52.158;9.968;2023-03-03T02:27:52;-0.60;99.90
14347;DHT22;7257;52.158;9.968;2023-03-03T02:28:13;-0.60;99.90
14347;DHT22;7257;52.158;9.968;2023-03-03T02:28:36;-0.50;99.90
14347;DHT22;7257;52.158;9.968;2023-03-03T02:28:58;-0.50;99.90
14347;DHT22;7257;52.158;9.968;2023-03-03T02:29:18;-0.50;99.90
14347;DHT22;7257;52.158;9.968;2023-03-03T02:29:39;-0.50;99.90
14347;DHT22;7257;52.158;9.968;2023-03-03T02:30:10;-0.50;99.90
14347;DHT22;7257;52.158;9.968;2023-03-03T02:30:37;-0.50;99.90
14347;DHT22;7257;52.158;9.968;2023-03-03T02:31:00;-0.50;99.90
14347;DHT22;7257;52.158;9.968;2023-03-03T02:31:23;-0.50;99.90
14347;DHT22;7257;52.158;9.968;2023-03-03T02:31:45;-0.50;99.90
14347;DHT22;7257;52.158;9.968;2023-03-03T02:32:06;-0.50;99.90
14347;DHT22;7257;52.158;9.968;2023-03-03T02:32:27;-0.50;99.90
14347;DHT22;7257;52.158;9.968;2023-03-03T02:32:48;-0.50;99.90
14347;DHT22;7257;52.158;9.968;2023-03-03T02:33:09;-0.50;99.90
14347;DHT22;7257;52.158;9.968;2023-03-03T02:33:30;-0.50;99.90